Time;durP1;ratioP1;P1;durP2;ratioP2;P2;SDS_P1;SDS_P2;PMS_P1;PMS_P2;Temp;Humidity;BMP_temperature;BMP_pressure;BME280_temperature;BME280_humidity;BME280_pressure;Samples;Min_cycle;Max_cycle;Signal;HPM_P1;HPM_P2
2024/02/09 00:02:34;;;;;;;37.17;18.23;;;2.30;99.90;;;;;;2602993;54;20297;31
2024/02/09 00:05:09;;;;;;;36.43;18.27;;;2.30;99.90;;;;;;2603983;46;21214;31
2024/02/09 00:07:45;;;;;;;37.20;18.80;;;2.30;99.90;;;;;;2603085;54;20051;31
2024/02/09 00:10:23;;;;;;;34.65;15.07;;;2.30;99.90;;;;;;2621499;46;20111;31
2024/02/09 00:13:00;;;;;;;28.48;14.40;;;2.30;99.90;;;;;;2701440;39;20431;31
2024/02/09 00:15:35;;;;;;;29.88;15.50;;;2.30;99.90;;;;;;2603119;54;20909;31
2024/02/09 00:18:10;;;;;;;24.80;12.60;;;2.30;99.90;;;;;;2602983;54;20925;31
2024/02/09 00:20:45;;;;;;;27.13;13.87;;;2.30;99.90;;;;;;2603231;54;20088;31
2024/02/09 00:23:21;;;;;;;25.45;13.50;;;2.30;99.90;;;;;;2603092;54;20831;31
2024/02/09 00:26:00;;;;;;;30.37;16.57;;;2.30;99.90;;;;;;2701680;39;20472;31
2024/02/09 00:28:35;;;;;;;25.95;12.05;;;2.20;99.90;;;;;;2621823;46;21471;31
2024/02/09 00:31:10;;;;;;;27.03;15.30;;;2.30;99.90;;;;;;2603270;54;20532;31
2024/02/09 00:33:45;;;;;;;31.33;15.57;;;2.30;99.90;;;;;;2603228;54;21195;31
2024/02/09 00:36:21;;;;;;;34.80;16.63;;;2.30;99.90;;;;;;2603170;54;21122;31
2024/02/09 00:38:57;;;;;;;27.75;14.00;;;2.30;99.90;;;;;;2764436;31;20328;31
2024/02/09 00:41:35;;;;;;;29.60;16.90;;;2.30;99.90;;;;;;2602722;54;20104;31
2024/02/09 00:44:10;;;;;;;23.58;13.23;;;2.30;99.90;;;;;;2602917;54;20289;31
2024/02/09 00:46:46;;;;;;;23.85;12.70;;;2.30;99.90;;;;;;2621590;46;20033;31
2024/02/09 00:49:22;;;;;;;21.95;9.68;;;2.40;99.90;;;;;;2603091;54;20050;31
2024/02/09 00:52:00;;;;;;;19.05;10.95;;;2.40;99.90;;;;;;2603144;54;20085;31
2024/02/09 00:54:36;;;;;;;21.63;11.23;;;2.30;99.90;;;;;;2621522;46;20061;31
2024/02/09 00:57:14;;;;;;;21.00;10.10;;;2.30;99.90;;;;;;2602967;54;20028;31
2024/02/09 00:59:50;;;;;;;18.30;9.60;;;2.30;99.90;;;;;;2621571;46;20883;31
2024/02/09 01:02:26;;;;;;;19.10;10.20;;;2.30;99.90;;;;;;2602957;54;20039;31
2024/02/09 01:05:01;;;;;;;20.58;9.68;;;2.30;99.90;;;;;;2602762;54;20018;31
2024/02/09 01:07:37;;;;;;;22.05;10.18;;;2.30;99.90;;;;;;2602847;54;22376;31
2024/02/09 01:10:12;;;;;;;21.15;8.95;;;2.30;99.90;;;;;;2602790;54;20034;31
2024/02/09 02:44:46;;;;;;;19.95;8.85;;;2.30;99.90;;;;;;2602480;54;20732;31
2024/02/09 02:47:21;;;;;;;17.13;7.80;;;2.30;99.90;;;;;;2621123;47;20043;31
2024/02/09 03:06:44;;;;;;;;;;;2.30;99.90;;;;;;2622030;46;20293;31
2024/02/09 03:09:41;;;;;;;14.75;8.00;;;2.30;99.90;;;;;;2621759;46;19948;31
2024/02/09 03:12:17;;;;;;;17.77;9.57;;;2.30;99.90;;;;;;2621468;46;20902;31
2024/02/09 03:14:54;;;;;;;20.23;9.53;;;2.30;99.90;;;;;;2603154;54;20230;31
2024/02/09 03:17:30;;;;;;;22.50;9.70;;;2.30;99.90;;;;;;2603404;54;20270;31
2024/02/09 03:20:05;;;;;;;21.15;9.60;;;2.30;99.90;;;;;;2603222;54;20109;31
2024/02/09 03:22:40;;;;;;;16.23;8.77;;;2.30;99.90;;;;;;2603296;54;20922;31
2024/02/09 03:25:21;;;;;;;20.85;9.60;;;2.30;99.90;;;;;;2603310;54;22414;31
2024/02/09 03:27:57;;;;;;;18.70;9.02;;;2.30;99.90;;;;;;2603353;54;20874;31
2024/02/09 03:30:31;;;;;;;22.13;9.85;;;2.30;99.90;;;;;;2701825;39;21554;31
2024/02/09 03:33:07;;;;;;;18.40;8.60;;;2.30;99.90;;;;;;2621444;46;20916;31
2024/02/09 03:35:42;;;;;;;17.30;9.05;;;2.40;99.90;;;;;;2603003;54;21093;31
2024/02/09 03:38:19;;;;;;;17.08;9.40;;;2.30;99.90;;;;;;2603168;54;20104;31
2024/02/09 03:40:58;;;;;;;18.88;9.43;;;2.40;99.90;;;;;;2603266;54;20085;31
2024/02/09 03:43:34;;;;;;;15.55;8.65;;;2.30;99.90;;;;;;2603312;54;20038;31
2024/02/09 03:46:09;;;;;;;20.37;9.33;;;2.30;99.90;;;;;;2603137;54;20914;31
2024/02/09 03:48:45;;;;;;;20.17;9.83;;;2.40;99.90;;;;;;2603126;54;20895;31
2024/02/09 03:51:25;;;;;;;18.97;9.57;;;2.40;99.90;;;;;;2603139;54;21086;31
2024/02/09 03:54:00;;;;;;;22.50;9.75;;;2.30;99.90;;;;;;2603249;54;20251;31
2024/02/09 03:56:37;;;;;;;20.95;9.85;;;2.30;99.90;;;;;;2603209;54;20048;31
2024/02/09 03:59:10;;;;;;;23.05;9.60;;;2.30;99.90;;;;;;2603318;54;22497;31
2024/02/09 04:01:45;;;;;;;19.08;9.38;;;2.30;99.90;;;;;;2603093;54;20872;31
2024/02/09 04:04:21;;;;;;;18.15;9.80;;;2.30;99.90;;;;;;2603240;54;20030;31
2024/02/09 04:06:56;;;;;;;19.10;10.25;;;2.30;99.90;;;;;;2603280;54;20036;31
2024/02/09 04:09:31;;;;;;;17.40;8.73;;;2.40;99.90;;;;;;2603015;54;20888;31
2024/02/09 04:12:28;;;;;;;16.60;8.23;;;2.40;99.90;;;;;;2603280;54;20846;31
2024/02/09 04:15:04;;;;;;;17.67;8.43;;;2.40;99.90;;;;;;2603019;54;20875;31
2024/02/09 04:17:38;;;;;;;16.63;9.27;;;2.40;99.90;;;;;;2603058;54;21082;31
2024/02/09 04:20:14;;;;;;;17.15;8.60;;;2.40;99.90;;;;;;2621547;46;20287;31
2024/02/09 04:22:50;;;;;;;18.83;9.35;;;2.40;99.90;;;;;;2603036;54;20839;31
2024/02/09 04:25:26;;;;;;;17.75;8.50;;;2.40;99.90;;;;;;2603045;54;20038;31
2024/02/09 04:28:04;;;;;;;17.50;8.57;;;2.40;99.90;;;;;;2603200;54;20763;31
2024/02/09 04:30:39;;;;;;;17.45;9.43;;;2.40;99.90;;;;;;2621774;46;20034;31
2024/02/09 04:33:12;;;;;;;16.60;8.40;;;2.40;99.90;;;;;;2621391;46;22361;31
2024/02/09 04:35:47;;;;;;;19.27;8.57;;;2.40;99.90;;;;;;2602894;54;20057;31
2024/02/09 04:38:21;;;;;;;19.17;9.68;;;2.40;99.90;;;;;;2621603;46;20026;31
2024/02/09 04:40:57;;;;;;;18.85;9.25;;;2.40;99.90;;;;;;2603133;54;20743;31
2024/02/09 04:43:34;;;;;;;15.33;8.60;;;2.40;99.90;;;;;;2603156;54;20030;31
2024/02/09 04:46:10;;;;;;;18.30;9.05;;;2.40;99.90;;;;;;2621416;46;20033;31
2024/02/09 04:48:45;;;;;;;20.50;10.00;;;2.40;99.90;;;;;;2621537;46;20029;31
2024/02/09 04:51:20;;;;;;;17.42;9.13;;;2.40;99.90;;;;;;2701328;39;21550;31
2024/02/09 04:53:55;;;;;;;18.30;8.90;;;2.40;99.90;;;;;;2603033;54;20054;31
2024/02/09 04:56:32;;;;;;;18.85;9.07;;;2.40;99.90;;;;;;2602974;54;20856;31
2024/02/09 04:59:10;;;;;;;20.05;9.93;;;2.30;99.90;;;;;;2602924;54;20866;31
2024/02/09 05:01:45;;;;;;;17.75;8.55;;;2.30;99.90;;;;;;2602911;54;20100;31
2024/02/09 05:04:20;;;;;;;18.10;9.25;;;2.40;99.90;;;;;;2603170;54;20030;31
2024/02/09 05:06:55;;;;;;;19.00;8.45;;;2.40;99.90;;;;;;2621553;46;20030;31
2024/02/09 05:09:31;;;;;;;19.30;9.67;;;2.40;99.90;;;;;;2602985;54;20104;31
2024/02/09 05:12:08;;;;;;;17.20;8.37;;;2.40;99.90;;;;;;2602979;54;21206;31
2024/02/09 05:14:51;;;;;;;17.90;9.05;;;2.40;99.90;;;;;;2621366;46;20061;31
2024/02/09 05:17:38;;;;;;;16.73;9.23;;;2.40;99.90;;;;;;2602972;54;20031;31
2024/02/09 05:20:13;;;;;;;18.90;8.60;;;2.40;99.90;;;;;;2602922;54;20230;31
2024/02/09 05:22:49;;;;;;;;;;;2.40;99.90;;;;;;2621620;46;20059;31
2024/02/09 05:25:25;;;;;;;13.18;7.15;;;2.40;99.90;;;;;;2602861;54;19956;31
2024/02/09 05:28:21;;;;;;;15.57;7.90;;;2.40;99.90;;;;;;2602541;54;20894;31
2024/02/09 05:30:58;;;;;;;21.43;8.97;;;2.50;99.90;;;;;;2603033;54;20892;31
2024/02/09 05:33:35;;;;;;;15.50;7.97;;;2.50;99.90;;;;;;2602679;54;20285;31
2024/02/09 05:36:10;;;;;;;14.23;6.67;;;2.50;99.90;;;;;;2602959;54;20850;31
2024/02/09 05:38:49;;;;;;;19.10;8.95;;;2.60;99.90;;;;;;2621210;46;20242;31
2024/02/09 05:41:22;;;;;;;15.10;7.40;;;2.80;99.90;;;;;;2621032;46;21100;31
2024/02/09 05:43:59;;;;;;;15.13;7.57;;;2.80;99.90;;;;;;2602643;54;21551;31
2024/02/09 05:46:37;;;;;;;15.17;7.30;;;2.80;99.90;;;;;;2602728;54;20052;31
2024/02/09 05:49:12;;;;;;;14.40;7.30;;;2.80;99.90;;;;;;2602705;54;21000;31
2024/02/09 05:51:47;;;;;;;15.60;7.30;;;2.80;99.90;;;;;;2602883;54;20854;31
2024/02/09 05:54:27;;;;;;;12.32;6.72;;;2.70;99.90;;;;;;2602587;54;20052;31
2024/02/09 05:57:03;;;;;;;13.10;7.47;;;2.70;99.90;;;;;;2602647;54;20830;31
2024/02/09 05:59:39;;;;;;;13.80;7.00;;;2.70;99.90;;;;;;2602780;54;20250;31
2024/02/09 06:02:17;;;;;;;17.23;7.82;;;2.70;99.90;;;;;;2602663;54;20764;31
2024/02/09 06:04:54;;;;;;;16.73;8.45;;;2.70;99.90;;;;;;2602822;54;20895;31
2024/02/09 06:07:29;;;;;;;13.13;6.70;;;2.60;99.90;;;;;;2700976;39;21463;31
2024/02/09 06:10:03;;;;;;;19.00;9.05;;;2.60;99.90;;;;;;2602520;54;20054;31
2024/02/09 06:12:39;;;;;;;14.82;7.20;;;2.70;99.90;;;;;;2621184;47;20081;31
2024/02/09 06:15:16;;;;;;;22.70;11.07;;;2.70;99.90;;;;;;2621056;47;20030;31
2024/02/09 06:17:53;;;;;;;51.03;17.03;;;2.60;99.90;;;;;;2602599;54;20828;31
2024/02/09 06:20:30;;;;;;;33.67;14.38;;;2.70;99.90;;;;;;2602767;54;20242;31
2024/02/09 06:23:05;;;;;;;39.25;15.20;;;2.70;99.90;;;;;;2602575;54;20039;31
2024/02/09 06:25:40;;;;;;;21.10;10.98;;;2.70;99.90;;;;;;2719695;39;21501;31
2024/02/09 06:28:15;;;;;;;17.80;8.77;;;2.70;99.90;;;;;;2700972;39;21512;31
2024/02/09 06:30:51;;;;;;;16.80;8.25;;;2.70;99.90;;;;;;2602703;54;20784;31
2024/02/09 06:33:29;;;;;;;16.60;8.15;;;2.70;99.90;;;;;;2602781;54;20100;31
2024/02/09 06:36:07;;;;;;;16.48;8.48;;;2.70;99.90;;;;;;2602507;54;20034;31
2024/02/09 06:38:42;;;;;;;16.13;7.80;;;2.70;99.90;;;;;;2602754;54;20869;31
2024/02/09 06:41:17;;;;;;;15.05;7.28;;;2.70;99.90;;;;;;2603163;54;20096;31
2024/02/09 06:43:53;;;;;;;14.05;7.90;;;2.70;99.90;;;;;;2603232;54;20857;31
2024/02/09 06:46:28;;;;;;;17.50;7.72;;;2.70;99.90;;;;;;2621460;46;20804;31
2024/02/09 06:49:06;;;;;;;15.00;7.90;;;2.70;99.90;;;;;;2603357;54;20034;31
2024/02/09 06:51:45;;;;;;;15.48;8.43;;;2.70;99.90;;;;;;2603347;54;20062;31
2024/02/09 06:54:21;;;;;;;16.45;8.35;;;2.70;99.90;;;;;;2603361;54;20038;31
2024/02/09 06:56:56;;;;;;;13.70;7.57;;;2.70;99.90;;;;;;2603393;54;20842;31
2024/02/09 06:59:31;;;;;;;15.63;9.15;;;2.70;99.90;;;;;;2603347;54;20027;31
2024/02/09 07:02:07;;;;;;;23.15;11.40;;;2.70;99.90;;;;;;2603164;54;20085;31
2024/02/09 07:04:50;;;;;;;17.27;10.45;;;2.80;99.90;;;;;;2603289;54;21164;31
2024/02/09 07:07:28;;;;;;;15.55;8.35;;;2.80;99.90;;;;;;2603266;54;20951;31
2024/02/09 07:10:06;;;;;;;15.77;8.80;;;2.80;99.90;;;;;;2603020;54;20033;31
2024/02/09 07:12:41;;;;;;;16.63;9.80;;;2.80;99.90;;;;;;2603198;54;20882;31
2024/02/09 07:15:17;;;;;;;17.63;9.18;;;2.80;99.90;;;;;;2621620;46;20344;31
2024/02/09 07:17:56;;;;;;;15.20;8.25;;;2.80;99.90;;;;;;2603226;54;20822;31
2024/02/09 07:20:35;;;;;;;15.07;8.10;;;2.80;99.90;;;;;;2603499;54;20884;31
2024/02/09 07:23:10;;;;;;;43.33;24.45;;;2.80;99.90;;;;;;2603147;54;20996;31
2024/02/09 07:25:45;;;;;;;18.00;9.73;;;2.80;99.90;;;;;;2603340;54;20875;31
2024/02/09 07:28:21;;;;;;;15.95;8.75;;;2.80;99.90;;;;;;2603050;54;21314;31
2024/02/09 07:30:57;;;;;;;;;;;2.90;99.90;;;;;;2622065;46;20026;31
2024/02/09 07:33:32;;;;;;;20.02;8.32;;;2.90;99.90;;;;;;2603168;54;19960;31
2024/02/09 07:36:12;;;;;;;17.08;9.55;;;2.90;99.90;;;;;;2603296;54;20030;31
2024/02/09 07:38:48;;;;;;;19.77;8.10;;;2.90;99.90;;;;;;2603197;54;20870;31
2024/02/09 07:41:24;;;;;;;16.13;8.60;;;2.90;99.90;;;;;;2603201;54;20235;31
2024/02/09 07:44:03;;;;;;;14.55;7.53;;;2.90;99.90;;;;;;2602803;54;20908;31
2024/02/09 07:46:38;;;;;;;28.02;13.43;;;2.90;99.90;;;;;;2603269;54;20033;31
2024/02/09 07:49:12;;;;;;;18.88;9.93;;;3.00;99.90;;;;;;2620506;46;20058;31
2024/02/09 07:51:51;;;;;;;14.20;9.03;;;3.00;99.90;;;;;;2603352;54;20027;31
2024/02/09 07:54:27;;;;;;;25.53;16.70;;;3.00;99.90;;;;;;2603056;54;20567;31
2024/02/09 07:57:02;;;;;;;18.27;10.82;;;3.00;99.90;;;;;;2603248;54;20986;31
2024/02/09 07:59:42;;;;;;;34.95;16.83;;;3.00;99.90;;;;;;2603013;54;20033;31
2024/02/09 08:02:18;;;;;;;19.20;11.13;;;3.10;99.90;;;;;;2602888;54;20027;31
2024/02/09 08:04:54;;;;;;;16.00;8.90;;;3.10;99.90;;;;;;2603054;54;20890;31
2024/02/09 08:07:31;;;;;;;19.50;11.98;;;3.10;99.90;;;;;;2621517;46;20046;31
2024/02/09 08:10:08;;;;;;;15.20;9.70;;;3.10;99.90;;;;;;2602947;54;20967;31
2024/02/09 08:12:45;;;;;;;13.90;7.85;;;3.10;99.90;;;;;;2621493;46;20339;31
2024/02/09 08:15:20;;;;;;;15.00;8.20;;;3.10;99.90;;;;;;2603211;54;20022;31
2024/02/09 08:17:55;;;;;;;15.10;8.55;;;3.10;99.90;;;;;;2603082;54;20877;31
2024/02/09 08:20:36;;;;;;;16.40;7.95;;;3.10;99.90;;;;;;2602710;54;20771;31
2024/02/09 08:23:15;;;;;;;14.25;7.70;;;3.20;99.90;;;;;;2603074;54;20055;31
2024/02/09 08:25:50;;;;;;;15.38;8.75;;;3.20;99.90;;;;;;2621622;46;20027;31
2024/02/09 08:28:25;;;;;;;15.93;8.77;;;3.30;99.90;;;;;;2603027;54;20030;31
2024/02/09 08:31:06;;;;;;;14.38;8.75;;;3.20;99.90;;;;;;2602981;54;20119;31
2024/02/09 08:33:43;;;;;;;15.15;7.75;;;3.30;99.90;;;;;;2621465;46;20051;31
2024/02/09 08:36:21;;;;;;;17.42;9.68;;;3.30;99.90;;;;;;2603014;54;20977;31
2024/02/09 08:38:59;;;;;;;17.75;9.50;;;3.30;99.90;;;;;;2602754;54;20034;31
2024/02/09 08:41:34;;;;;;;18.50;10.05;;;3.30;99.90;;;;;;2719765;39;20468;31
2024/02/09 08:44:09;;;;;;;19.05;9.82;;;3.30;99.90;;;;;;2603039;54;20030;31
2024/02/09 08:46:46;;;;;;;17.30;9.18;;;3.40;99.90;;;;;;2602799;54;20084;31
2024/02/09 08:49:21;;;;;;;18.08;9.35;;;3.40;99.90;;;;;;2602954;54;20924;31
2024/02/09 08:51:54;;;;;;;19.80;10.40;;;3.40;99.90;;;;;;2603051;54;22367;31
2024/02/09 08:54:32;;;;;;;15.23;8.23;;;3.40;99.90;;;;;;2602962;54;20022;31
2024/02/09 08:57:07;;;;;;;19.15;10.48;;;3.40;99.90;;;;;;2602975;54;20169;31
2024/02/09 08:59:44;;;;;;;19.60;10.20;;;3.40;99.90;;;;;;2621471;46;20033;31
2024/02/09 09:02:19;;;;;;;;;;;3.40;99.90;;;;;;2602995;54;21532;31
2024/02/09 09:04:54;;;;;;;19.30;10.60;;;3.50;99.90;;;;;;2621341;46;19941;31
2024/02/09 09:07:29;;;;;;;19.35;10.25;;;3.50;99.90;;;;;;2602971;54;21263;31
2024/02/09 09:10:08;;;;;;;20.73;10.20;;;3.50;99.90;;;;;;2602795;54;20026;31
2024/02/09 09:12:46;;;;;;;23.67;11.25;;;3.50;99.90;;;;;;2602776;54;20030;31
2024/02/09 09:15:24;;;;;;;18.07;10.33;;;3.60;99.90;;;;;;2621517;46;20875;31
2024/02/09 09:18:01;;;;;;;21.90;11.50;;;3.60;99.90;;;;;;2602804;54;20292;31
2024/02/09 09:20:38;;;;;;;21.37;10.03;;;3.70;99.90;;;;;;2602946;54;20798;31
2024/02/09 09:23:15;;;;;;;21.50;10.63;;;3.70;99.90;;;;;;2602900;54;20639;31
2024/02/09 09:25:53;;;;;;;19.77;10.85;;;3.70;99.90;;;;;;2602702;54;20973;31
2024/02/09 09:28:30;;;;;;;21.42;11.25;;;3.80;99.90;;;;;;2602638;54;20086;31
2024/02/09 09:31:06;;;;;;;26.60;11.25;;;3.80;99.90;;;;;;2701175;39;21544;31
2024/02/09 09:33:41;;;;;;;;;;;3.80;99.90;;;;;;2602837;54;20086;31
2024/02/09 09:36:18;;;;;;;22.47;11.43;;;3.90;99.90;;;;;;2602689;54;20747;31
2024/02/09 09:38:56;;;;;;;24.75;12.50;;;3.90;99.90;;;;;;2602607;54;20911;31
2024/02/09 09:41:40;;;;;;;20.97;11.23;;;4.00;99.90;;;;;;2603142;54;20559;31
2024/02/09 09:44:19;;;;;;;24.90;13.63;;;4.00;99.90;;;;;;2621359;46;20251;31
2024/02/09 09:46:57;;;;;;;25.67;12.40;;;4.10;99.90;;;;;;2602627;54;20026;31
2024/02/09 09:49:36;;;;;;;25.85;12.45;;;4.10;99.90;;;;;;2621192;46;20027;31
2024/02/09 09:52:13;;;;;;;26.90;11.85;;;4.20;99.90;;;;;;2602790;54;21228;31
2024/02/09 09:54:50;;;;;;;26.55;12.95;;;4.30;99.90;;;;;;2621176;46;20041;31
2024/02/09 09:57:36;;;;;;;24.70;12.40;;;4.40;99.90;;;;;;2621386;46;20046;31
2024/02/09 10:00:23;;;;;;;23.42;11.77;;;4.40;99.90;;;;;;2602939;54;20026;31
2024/02/09 10:03:04;;;;;;;23.27;13.02;;;4.50;99.90;;;;;;2602829;54;20826;31
2024/02/09 10:05:41;;;;;;;26.75;13.50;;;4.50;99.90;;;;;;2601936;54;20089;31
2024/02/09 10:08:21;;;;;;;28.92;14.30;;;4.60;99.90;;;;;;2601709;54;20063;31
2024/02/09 10:10:58;;;;;;;33.37;13.77;;;4.60;99.90;;;;;;2601878;54;20905;31
2024/02/09 10:13:44;;;;;;;30.00;13.25;;;4.60;99.90;;;;;;2602585;54;20242;31
2024/02/09 10:19:13;;;;;;;32.88;16.85;;;4.70;99.90;;;;;;2621923;46;20239;31
2024/02/09 10:22:02;;;;;;;48.60;20.60;;;4.80;99.90;;;;;;2603179;54;20045;31
2024/02/09 10:25:00;;;;;;;40.90;19.50;;;4.80;99.90;;;;;;2702131;39;20416;31
2024/02/09 10:27:42;;;;;;;36.58;17.45;;;4.80;99.90;;;;;;2621769;46;20250;31
2024/02/09 10:30:37;;;;;;;37.60;17.13;;;4.80;99.90;;;;;;2603501;54;20026;31
2024/02/09 10:33:14;;;;;;;28.48;14.80;;;4.90;99.90;;;;;;2603263;54;20048;31
2024/02/09 10:36:01;;;;;;;36.10;17.65;;;4.90;99.90;;;;;;2603406;54;20034;31
2024/02/09 10:41:48;;;;;;;42.10;18.88;;;5.10;99.90;;;;;;2603252;54;20901;31
2024/02/09 10:44:24;;;;;;;40.70;19.60;;;5.10;99.90;;;;;;2603240;54;20937;31
2024/02/09 10:47:08;;;;;;;41.45;20.25;;;5.20;99.90;;;;;;2622058;46;20030;31
2024/02/09 10:50:01;;;;;;;41.65;19.15;;;5.20;99.90;;;;;;2603340;54;20027;31
2024/02/09 10:52:42;;;;;;;42.35;19.00;;;5.20;99.90;;;;;;2621908;46;20038;31
2024/02/09 10:55:26;;;;;;;35.53;17.67;;;5.30;99.90;;;;;;2603075;54;20085;31
2024/02/09 10:58:12;;;;;;;36.15;17.48;;;5.40;99.90;;;;;;2621419;46;21923;31
2024/02/09 11:01:08;;;;;;;43.00;21.10;;;5.50;99.90;;;;;;2621191;46;20104;31
2024/02/09 11:10:37;;;;;;;41.33;18.42;;;5.70;99.90;;;;;;2603020;54;20934;31
2024/02/09 11:19:39;;;;;;;43.70;20.05;;;5.90;99.90;;;;;;2602353;54;20247;31
2024/02/09 12:17:43;;;;;;;51.03;27.10;;;7.50;99.90;;;;;;2603021;54;20034;31
2024/02/09 12:30:02;;;;;;;45.40;22.25;;;7.70;99.90;;;;;;2602778;54;20027;31
2024/02/09 12:32:46;;;;;;;47.40;24.63;;;7.70;99.90;;;;;;2606321;46;20031;31
2024/02/09 13:57:39;;;;;;;60.27;31.67;;;8.40;99.90;;;;;;2602499;54;20877;31
2024/02/09 14:00:16;;;;;;;54.80;30.50;;;8.50;99.90;;;;;;2619508;46;20851;31
2024/02/09 14:42:08;;;;;;;49.70;23.77;;;8.60;99.90;;;;;;2601352;54;20026;31
2024/02/09 14:45:02;;;;;;;49.15;24.45;;;8.60;99.90;;;;;;2601655;54;20820;31
2024/02/09 14:50:42;;;;;;;44.92;22.77;;;8.60;99.90;;;;;;2602477;54;20022;31
2024/02/09 15:15:34;;;;;;;51.33;26.08;;;8.70;99.90;;;;;;2927337;46;20301;31
2024/02/09 15:33:15;;;;;;;55.47;28.15;;;8.70;99.90;;;;;;2610830;54;20018;31
2024/02/09 15:35:57;;;;;;;51.95;25.13;;;8.70;99.90;;;;;;2602888;54;20033;31
2024/02/09 15:38:39;;;;;;;57.20;27.30;;;8.70;99.90;;;;;;2602771;54;20061;31
2024/02/09 15:50:43;;;;;;;101.10;49.80;;;8.70;99.90;;;;;;2610847;54;20022;31
2024/02/09 15:53:22;;;;;;;83.35;43.78;;;8.80;99.90;;;;;;2609259;46;20919;31
2024/02/09 15:56:00;;;;;;;73.63;39.17;;;8.80;99.90;;;;;;2602814;54;20928;31
2024/02/09 16:16:57;;;;;;;57.53;36.30;;;9.00;99.90;;;;;;2601098;54;20738;31
2024/02/09 16:22:15;;;;;;;52.47;29.00;;;9.00;99.90;;;;;;2621265;46;20030;31
2024/02/09 16:25:06;;;;;;;48.10;27.75;;;9.10;99.90;;;;;;2602874;54;20840;31
2024/02/09 16:27:44;;;;;;;49.65;27.40;;;9.10;99.90;;;;;;2621347;46;20026;31
2024/02/09 16:30:23;;;;;;;53.92;28.90;;;9.10;99.90;;;;;;2602811;54;20881;31
2024/02/09 16:33:04;;;;;;;48.08;27.50;;;9.10;99.90;;;;;;2602826;54;20951;31
2024/02/09 16:35:40;;;;;;;53.70;28.45;;;9.10;99.90;;;;;;2620907;46;20038;31
2024/02/09 16:47:06;;;;;;;193.93;94.15;;;9.10;99.90;;;;;;2602903;54;20139;31
2024/02/09 16:49:54;;;;;;;140.00;81.60;;;9.10;99.90;;;;;;2602722;54;20034;31
2024/02/09 16:57:52;;;;;;;77.45;48.35;;;9.10;99.90;;;;;;2620825;46;20027;31
2024/02/09 17:03:23;;;;;;;78.85;43.97;;;9.10;99.90;;;;;;2602496;54;20022;31
2024/02/09 17:06:01;;;;;;;69.10;40.10;;;9.10;99.90;;;;;;2620965;46;20791;31
2024/02/09 17:08:36;;;;;;;58.72;34.75;;;9.10;99.90;;;;;;2602618;54;21096;31
2024/02/09 17:11:12;;;;;;;59.70;35.55;;;9.10;99.90;;;;;;2602656;54;20030;31
2024/02/09 17:13:48;;;;;;;43.15;28.35;;;9.10;99.90;;;;;;2602628;54;20974;31
2024/02/09 17:16:25;;;;;;;60.20;36.38;;;9.10;99.90;;;;;;2602556;54;20053;31
2024/02/09 17:19:12;;;;;;;59.07;32.10;;;9.10;99.90;;;;;;2602771;54;20026;31
2024/02/09 17:22:26;;;;;;;79.28;40.97;;;9.10;99.90;;;;;;2621200;46;20039;31
2024/02/09 17:25:32;;;;;;;58.65;31.90;;;9.10;99.90;;;;;;2602405;54;20903;31
2024/02/09 17:28:11;;;;;;;49.22;28.08;;;9.10;99.90;;;;;;2620832;46;20033;31
2024/02/09 17:33:57;;;;;;;42.65;23.67;;;9.10;99.90;;;;;;2602687;54;20885;31
2024/02/09 17:36:59;;;;;;;40.40;21.70;;;9.10;99.90;;;;;;2602473;54;20057;31
2024/02/09 17:40:00;;;;;;;34.85;18.77;;;9.10;99.90;;;;;;2602762;54;20835;31
2024/02/09 18:08:20;;;;;;;16.10;7.30;;;9.10;99.90;;;;;;2611513;54;20022;31
2024/02/09 18:26:32;;;;;;;12.05;5.20;;;9.40;99.90;;;;;;2602540;54;21815;31
2024/02/09 18:42:19;;;;;;;9.65;4.68;;;9.40;99.90;;;;;;2602634;54;20049;31
2024/02/09 18:45:05;;;;;;;12.82;6.55;;;9.50;99.90;;;;;;2603329;54;20033;31
2024/02/09 18:48:00;;;;;;;15.85;6.25;;;9.50;99.90;;;;;;2603044;54;20033;31
2024/02/09 18:50:43;;;;;;;18.13;7.45;;;9.40;99.90;;;;;;2621901;46;20072;31
2024/02/09 18:59:36;;;;;;;13.95;6.55;;;9.30;99.90;;;;;;2603140;54;20022;31
2024/02/09 19:02:23;;;;;;;17.57;8.20;;;9.20;99.90;;;;;;2603325;54;21878;31
2024/02/09 19:05:43;;;;;;;23.90;12.30;;;9.30;99.90;;;;;;2603071;54;20239;31
2024/02/09 19:08:43;;;;;;;19.08;10.50;;;9.20;99.90;;;;;;2603246;54;20131;31
2024/02/09 19:20:57;;;;;;;19.42;12.07;;;8.90;99.90;;;;;;2602839;54;20022;31
2024/02/09 19:26:33;;;;;;;18.80;9.90;;;8.80;99.90;;;;;;2602537;54;20967;31
2024/02/09 19:29:11;;;;;;;22.80;11.05;;;8.80;99.90;;;;;;2602433;54;20042;31
2024/02/09 19:31:49;;;;;;;24.02;11.70;;;8.80;99.90;;;;;;2602930;54;20031;31
2024/02/09 19:34:56;;;;;;;16.33;10.35;;;8.70;99.90;;;;;;2603067;54;20030;31
2024/02/09 19:37:38;;;;;;;18.00;9.70;;;8.70;99.90;;;;;;2602883;54;20868;31
2024/02/09 19:46:35;;;;;;;13.60;7.35;;;8.60;99.90;;;;;;2603005;54;20034;31
2024/02/09 19:49:25;;;;;;;15.93;7.93;;;8.60;99.90;;;;;;2602838;54;20042;31
2024/02/09 19:52:18;;;;;;;17.30;6.50;;;8.60;99.90;;;;;;2621159;46;20050;31
2024/02/09 19:54:59;;;;;;;14.30;6.75;;;8.60;99.90;;;;;;2621377;46;20258;31
2024/02/09 20:03:56;;;;;;;13.93;5.30;;;8.60;99.90;;;;;;2602639;54;20845;31
2024/02/09 20:19:04;;;;;;;24.55;11.07;;;8.60;99.90;;;;;;2600390;54;20088;31
2024/02/09 21:07:16;;;;;;;23.50;12.45;;;8.10;99.90;;;;;;2602723;54;20022;31
